Oswestry, United Kingdom
Current Conditions -  °F | °C
As of 3:50 AM on Tuesday 23 Dec 2014 (Local Time) from EGOS Reporting Station
Drizzle Drizzle  
Wind Chill: 50°   Ceiling: 1900
Heat Index: 50°   Visibility: 4mi
Dew Point: 48°   Wind: 18mph
Humidity: 94%   Direction: 220°SW
Pressure: 29.91"   Gusts: NA
Location:  52.82°N, 3.29°W
Report Text: EGOS 230350Z AUTO 22016KT 6000 -DZ BKN019/// SCT028/// 10/09 Q1013
Loading
Personal Weather Stations






























Interactive Weather Map New forecast layout! Learn more

10-Day Weather Forecast

Advertisements
Track Severe Weather on mobile